首页
METAR-TAF:

METAR-TAF

机场 :

哥伦比亚, 南卡罗来纳州, 美国

纬度: 33-56-31N, 经度: 081-07-05W, 海拔: 71米

当前天气观测

该预报发布于33分钟前的23:56 UTC
风速8节,风向南转南东
温度 27°C
湿度 74%
气压 1018 hPa
能見度: 16.1公里
散云层高于4900英尺
散云层高于18000英尺

METAR: KCAE 232356Z 15008KT 10SM SCT049 SCT180 27/22 A3006 RMK AO2 SLP175 T02720217 10311 20272 53010

时间: 20:29 (00:29 UTC)

预报

该预报发布于58分钟前的23:31 UTC
预报有效从24日的 00点(UTC)到 24日的 24点(UTC)
风速6节,风向东转东南
能見度: 10公里
少量云层高于4500英尺
从 24日的 0100点(UTC)
风速3节,风向多变
能見度: 10公里
少量云层高于4000英尺
从 24日的 0500点(UTC)
风速3节,风向多变
能見度: 10公里
散云层高于4000英尺
从 24日的 1200点(UTC)
风速5节,风向东转东北
能見度: 10公里
散云层高于800英尺
多云层高于2500英尺
从 24日的 1600点(UTC)
风速8节,风向
能見度: 10公里
多云层高于4000英尺

TAF: KCAE 232331Z 2400/2424 11006KT P6SM FEW045 FM240100 VRB03KT P6SM FEW040 FM240500 VRB03KT P6SM SCT040 FM241200 06005KT P6SM SCT008 BKN025 FM241600 08008KT P6SM BKN040

超过4000个机场的气象观测和天气预报(METAR&TAF报告)。

可查询的气象台以黄色和红色小点在地图上表示。

将鼠标移到小点上方,可查看气象台名称。

然后点击查看天气观测和预报。

如需切换地图:点击带黑十字的绿色按钮放大地图;点击带横线的绿色按钮缩小地图;或者点击绿色箭头查看邻近地区的地图。


METAR-TAF: